createdAt,value
2023-05-11T00:00:27.785Z,100461.31
2023-05-11T00:03:36.336Z,100461.78
2023-05-11T00:06:51.261Z,100458.19
2023-05-11T00:09:59.572Z,100459.16
2023-05-11T00:13:14.260Z,100462.66
2023-05-11T00:16:16.396Z,100461.84
2023-05-11T00:19:31.263Z,100461.56
2023-05-11T00:22:33.156Z,100463.63
2023-05-11T00:25:48.273Z,100467.72
2023-05-11T00:28:56.315Z,100469.34
2023-05-11T00:32:11.327Z,100462.81
2023-05-11T00:35:19.890Z,100459.66
2023-05-11T00:38:28.265Z,100455.06
2023-05-11T00:41:43.293Z,100448.84
2023-05-11T00:44:45.091Z,100449.66
2023-05-11T00:48:00.382Z,100451.56
2023-05-11T00:51:15.270Z,100446.16
2023-05-11T00:54:17.182Z,100445.06
2023-05-11T00:57:33.274Z,100438.06
2023-05-11T01:00:48.336Z,100440.28
2023-05-11T01:04:03.277Z,100443.78
2023-05-11T01:07:30.312Z,100439.81
2023-05-11T01:10:42.722Z,100434.41
2023-05-11T01:13:58.307Z,100448.69
2023-05-11T01:17:18.282Z,100438.72
2023-05-11T01:20:25.516Z,100442.69
2023-05-11T01:23:55.259Z,100445.88
2023-05-11T01:27:45.285Z,100436.50
2023-05-11T01:31:09.322Z,100443.47
2023-05-11T01:34:27.271Z,100451.06
2023-05-11T01:37:39.260Z,100425.16
2023-05-11T01:41:05.259Z,100437.72
2023-05-11T01:44:21.278Z,100436.72
2023-05-11T01:47:31.686Z,100437.97
2023-05-11T01:50:46.276Z,100430.47
2023-05-11T01:53:55.260Z,100427.00
2023-05-11T01:57:05.241Z,100421.34
2023-05-11T02:00:23.321Z,100435.50
2023-05-11T02:03:35.215Z,100439.56
2023-05-11T02:06:46.285Z,100435.56
2023-05-11T02:10:02.824Z,100429.59
2023-05-11T02:13:12.281Z,100428.78
2023-05-11T02:16:28.388Z,100422.63
2023-05-11T02:19:33.984Z,100427.50
2023-05-11T02:22:53.261Z,100424.81
2023-05-11T02:25:56.757Z,100427.31
2023-05-11T02:29:11.278Z,100404.09
2023-05-11T02:32:29.333Z,100420.47
2023-05-11T02:35:42.795Z,100423.75
2023-05-11T02:39:05.293Z,100423.59
2023-05-11T02:42:30.314Z,100428.75
2023-05-11T02:45:49.273Z,100417.81
2023-05-11T02:48:59.817Z,100424.41
2023-05-11T02:52:10.296Z,100420.22
2023-05-11T02:55:22.101Z,100412.16
2023-05-11T02:58:30.374Z,100412.16
2023-05-11T03:01:39.517Z,100401.69
2023-05-11T03:04:48.269Z,100402.78
2023-05-11T03:08:10.248Z,100411.94
2023-05-11T03:11:26.279Z,100413.56
2023-05-11T03:14:35.565Z,100413.56
2023-05-11T03:17:52.333Z,100404.38
2023-05-11T03:21:01.292Z,100412.66
2023-05-11T03:24:17.308Z,100408.88
2023-05-11T03:27:26.267Z,100411.94
2023-05-11T03:30:35.220Z,100426.69
2023-05-11T03:33:50.298Z,100422.72
2023-05-11T03:36:52.930Z,100425.72
2023-05-11T03:40:09.304Z,100410.09
2023-05-11T03:43:24.342Z,100429.12
2023-05-11T03:46:34.474Z,100427.53
2023-05-11T03:49:50.298Z,100430.94
2023-05-11T03:53:07.331Z,100426.16
2023-05-11T03:56:09.374Z,100436.72
2023-05-11T03:59:25.304Z,100430.34
2023-05-11T04:02:37.276Z,100434.25
2023-05-11T04:05:52.286Z,100436.22
2023-05-11T04:09:07.577Z,100439.41
2023-05-11T04:12:16.289Z,100443.81
2023-05-11T04:15:31.311Z,100441.81
2023-05-11T04:18:46.323Z,100442.72
2023-05-11T04:22:01.294Z,100441.91
2023-05-11T04:25:10.033Z,100445.09
2023-05-11T04:28:25.314Z,100453.97
2023-05-11T04:31:33.382Z,100453.25
2023-05-11T04:34:41.975Z,100452.50
2023-05-11T04:37:50.296Z,100450.47
2023-05-11T04:41:12.314Z,100449.88
2023-05-11T04:44:14.714Z,100457.25
2023-05-11T04:47:29.344Z,100454.28
2023-05-11T04:50:31.175Z,100464.75
2023-05-11T04:53:46.288Z,100461.47
2023-05-11T04:56:54.938Z,100462.62
2023-05-11T05:00:03.320Z,100456.16
2023-05-11T05:03:18.318Z,100458.25
2023-05-11T05:06:26.276Z,100466.22
2023-05-11T05:09:48.308Z,100467.84
2023-05-11T05:12:56.904Z,100465.62
2023-05-11T05:16:11.356Z,100465.22
2023-05-11T05:19:19.822Z,100457.66
2023-05-11T05:22:28.311Z,100459.25
2023-05-11T05:25:36.837Z,100467.03
2023-05-11T05:28:51.280Z,100464.75
2023-05-11T05:31:59.289Z,100470.31
2023-05-11T05:35:08.361Z,100467.34
2023-05-11T05:38:16.291Z,100470.13
2023-05-11T05:41:26.410Z,100472.22
2023-05-11T05:44:41.300Z,100473.59
2023-05-11T05:47:43.178Z,100468.50
2023-05-11T05:50:58.301Z,100479.12
2023-05-11T05:54:00.156Z,100477.81
2023-05-11T05:57:15.899Z,100484.31
2023-05-11T06:00:31.323Z,100484.06
2023-05-11T06:03:46.615Z,100479.91
2023-05-11T06:07:01.332Z,100484.00
2023-05-11T06:10:10.291Z,100482.06
2023-05-11T06:13:18.876Z,100481.94
2023-05-11T06:16:27.343Z,100482.25
2023-05-11T06:19:42.287Z,100485.09
2023-05-11T06:22:44.310Z,100466.34
2023-05-11T06:25:59.307Z,100476.94
2023-05-11T06:29:07.952Z,100487.41
2023-05-11T06:32:23.361Z,100471.66
2023-05-11T06:35:25.433Z,100468.47
2023-05-11T06:38:40.324Z,100448.28
2023-05-11T06:41:51.910Z,100489.25
2023-05-11T06:45:00.402Z,100477.50
2023-05-11T06:48:15.298Z,100476.41
2023-05-11T06:51:30.327Z,100481.81
2023-05-11T06:54:39.308Z,100469.41
2023-05-11T06:57:47.841Z,100469.56
2023-05-11T07:00:56.377Z,100475.94
2023-05-11T07:04:05.204Z,100463.69
2023-05-11T07:07:20.302Z,100464.97
2023-05-11T07:10:35.301Z,100459.41
2023-05-11T07:13:43.325Z,100449.25
2023-05-11T07:16:51.926Z,100459.12
2023-05-11T07:20:06.325Z,100466.66
2023-05-11T07:23:21.285Z,100468.34
2023-05-11T07:26:37.307Z,100467.03
2023-05-11T07:29:45.853Z,100456.00
2023-05-11T07:32:54.487Z,100466.03
2023-05-11T07:36:09.594Z,100464.03
2023-05-11T07:39:18.318Z,100445.75
2023-05-11T07:42:33.300Z,100448.09
2023-05-11T07:45:41.795Z,100464.00
2023-05-11T07:48:57.405Z,100447.31
2023-05-11T07:52:19.216Z,100465.78
2023-05-11T07:55:34.294Z,100457.84
2023-05-11T07:58:42.884Z,100463.78
2023-05-11T08:01:57.361Z,100472.53
2023-05-11T08:05:06.366Z,100466.72
2023-05-11T08:08:28.314Z,100467.81
2023-05-11T08:11:43.340Z,100472.34
2023-05-11T08:14:51.305Z,100459.28
2023-05-11T08:18:00.359Z,100456.59
2023-05-11T08:21:10.379Z,100459.28
2023-05-11T08:24:25.346Z,100455.44
2023-05-11T08:27:34.064Z,100452.25
2023-05-11T08:30:43.620Z,100449.03
2023-05-11T08:33:52.212Z,100442.78
2023-05-11T08:37:00.472Z,100451.75
2023-05-11T08:40:17.298Z,100439.97
2023-05-11T08:43:27.077Z,100436.16
2023-05-11T08:46:41.333Z,100437.84
2023-05-11T08:49:51.305Z,100420.66
2023-05-11T08:52:59.317Z,100427.84
2023-05-11T08:56:08.671Z,100426.69
2023-05-11T08:59:24.452Z,100426.97
2023-05-11T09:02:26.510Z,100411.84
2023-05-11T09:05:43.388Z,100412.78
2023-05-11T09:08:59.446Z,100412.34
2023-05-11T09:12:08.316Z,100412.78
2023-05-11T09:15:23.337Z,100407.41
2023-05-11T09:18:27.193Z,100399.91
2023-05-11T09:21:45.523Z,100409.50
2023-05-11T09:24:47.610Z,100406.28
2023-05-11T09:28:06.903Z,100392.47
2023-05-11T09:31:36.783Z,100389.63
2023-05-11T09:34:46.797Z,100388.28
2023-05-11T09:38:04.327Z,100386.50
2023-05-11T09:41:12.345Z,100388.41
2023-05-11T09:44:27.323Z,100386.50
2023-05-11T09:47:47.658Z,100390.34
2023-05-11T09:51:06.268Z,100377.13
2023-05-11T09:54:28.141Z,100384.22
2023-05-11T09:57:39.527Z,100382.66
2023-05-11T10:01:01.248Z,100382.50
2023-05-11T10:07:30.199Z,100377.34
2023-05-11T10:10:52.324Z,100378.06
2023-05-11T10:14:00.962Z,100360.75
2023-05-11T10:17:10.331Z,100367.00
2023-05-11T10:20:20.431Z,100362.75
2023-05-11T10:23:29.359Z,100356.44
2023-05-11T10:26:45.355Z,100364.22
2023-05-11T10:29:48.906Z,100362.56
2023-05-11T10:33:08.414Z,100362.25
2023-05-11T10:36:19.341Z,100356.81
2023-05-11T10:39:44.347Z,100339.25
2023-05-11T10:43:11.464Z,100352.91
2023-05-11T10:46:45.341Z,100343.66
2023-05-11T10:50:13.326Z,100339.22
2023-05-11T10:53:37.349Z,100346.53
2023-05-11T10:56:58.072Z,100333.41
2023-05-11T11:00:33.358Z,100338.50
2023-05-11T11:03:41.356Z,100320.66
2023-05-11T11:07:04.565Z,100324.87
2023-05-11T11:10:46.470Z,100320.47
2023-05-11T11:14:06.375Z,100326.72
2023-05-11T11:17:24.341Z,100312.16
2023-05-11T11:21:06.387Z,100324.28
2023-05-11T11:24:38.002Z,100318.44
2023-05-11T11:27:52.355Z,100322.16
2023-05-11T11:31:32.483Z,100305.22
2023-05-11T11:34:47.352Z,100302.41
2023-05-11T11:38:09.377Z,100307.81
2023-05-11T11:41:37.360Z,100312.31
2023-05-11T11:44:53.367Z,100291.72
2023-05-11T11:48:14.509Z,100312.97
2023-05-11T11:51:40.617Z,100317.28
2023-05-11T11:54:55.370Z,100301.06
2023-05-11T11:57:57.494Z,100313.72
2023-05-11T12:01:18.378Z,100297.94
2023-05-11T12:04:38.090Z,100303.47
2023-05-11T12:07:49.387Z,100302.16
2023-05-11T12:11:12.379Z,100296.69
2023-05-11T12:14:22.002Z,100286.16
2023-05-11T12:17:33.379Z,100280.31
2023-05-11T12:20:41.964Z,100291.59
2023-05-11T12:24:10.483Z,100284.94
2023-05-11T12:27:19.354Z,100276.84
2023-05-11T12:30:42.347Z,100268.94
2023-05-11T12:33:54.373Z,100273.97
2023-05-11T12:37:06.489Z,100272.72
2023-05-11T12:40:21.372Z,100278.13
2023-05-11T12:43:30.109Z,100262.66
2023-05-11T12:46:40.441Z,100268.66
2023-05-11T12:49:49.034Z,100266.28
2023-05-11T12:53:19.676Z,100258.09
2023-05-11T12:56:25.756Z,100255.62
2023-05-11T12:59:42.363Z,100258.09
2023-05-11T13:02:48.098Z,100250.28
2023-05-11T13:06:17.373Z,100243.78
2023-05-11T13:09:33.164Z,100241.88
2023-05-11T13:12:58.378Z,100233.97
2023-05-11T13:16:06.939Z,100234.31
2023-05-11T13:19:15.441Z,100222.59
2023-05-11T13:22:30.399Z,100217.66
2023-05-11T13:25:57.151Z,100228.34
2023-05-11T13:29:12.392Z,100214.25
2023-05-11T13:32:20.435Z,100220.50
2023-05-11T13:35:35.490Z,100212.41
2023-05-11T13:38:37.312Z,100219.09
2023-05-11T13:41:54.363Z,100199.66
2023-05-11T13:45:14.184Z,100209.25
2023-05-11T13:48:16.459Z,100215.69
2023-05-11T13:51:31.443Z,100209.59
2023-05-11T13:54:33.305Z,100197.88
2023-05-11T13:57:48.500Z,100194.00
2023-05-11T14:01:07.924Z,100190.84
2023-05-11T14:04:10.342Z,100170.28
2023-05-11T14:07:35.561Z,100191.81
2023-05-11T14:11:05.393Z,100191.72
2023-05-11T14:14:20.421Z,100192.63
2023-05-11T14:17:22.331Z,100191.41
2023-05-11T14:20:38.395Z,100185.78
2023-05-11T14:24:10.078Z,100186.28
2023-05-11T14:27:26.438Z,100180.41
2023-05-11T14:30:34.998Z,100171.31
2023-05-11T14:33:49.416Z,100174.47
2023-05-11T14:37:04.405Z,100179.34
2023-05-11T14:40:13.180Z,100172.03
2023-05-11T14:43:28.414Z,100181.84
2023-05-11T14:46:43.490Z,100178.69
2023-05-11T14:49:58.387Z,100171.34
2023-05-11T14:53:00.695Z,100178.53
2023-05-11T14:56:15.437Z,100174.06
2023-05-11T14:59:30.402Z,100176.91
2023-05-11T15:02:38.443Z,100174.59
2023-05-11T15:05:53.408Z,100171.69
2023-05-11T15:09:01.744Z,100163.66
2023-05-11T15:12:16.428Z,100164.88
2023-05-11T15:15:31.422Z,100177.94
2023-05-11T15:18:33.415Z,100176.41
2023-05-11T15:21:48.415Z,100171.34
2023-05-11T15:25:03.413Z,100185.03
2023-05-11T15:28:18.445Z,100172.06
2023-05-11T15:31:27.049Z,100185.22
2023-05-11T15:34:41.766Z,100185.66
2023-05-11T15:37:59.919Z,100175.13
2023-05-11T15:41:14.458Z,100181.62
2023-05-11T15:44:29.414Z,100189.00
2023-05-11T15:47:38.004Z,100186.53
2023-05-11T15:50:53.404Z,100182.44
2023-05-11T15:54:01.458Z,100200.16
2023-05-11T15:57:10.029Z,100201.31
2023-05-11T16:00:24.434Z,100198.44
2023-05-11T16:03:26.496Z,100200.81
2023-05-11T16:06:41.419Z,100194.41
2023-05-11T16:09:56.426Z,100187.81
2023-05-11T16:13:11.430Z,100195.38
2023-05-11T16:16:20.418Z,100211.25
2023-05-11T16:19:29.017Z,100205.19
2023-05-11T16:22:37.428Z,100198.62
2023-05-11T16:25:52.449Z,100197.03
2023-05-11T16:29:01.089Z,100199.84
2023-05-11T16:32:09.481Z,100210.28
2023-05-11T16:35:18.186Z,100213.31
2023-05-11T16:38:27.452Z,100217.97
2023-05-11T16:41:35.975Z,100220.16
2023-05-11T16:44:50.453Z,100226.53
2023-05-11T16:47:58.485Z,100219.09
2023-05-11T16:51:07.029Z,100224.41
2023-05-11T16:54:21.436Z,100242.31
2023-05-11T16:57:23.333Z,100254.91
2023-05-11T17:00:38.413Z,100255.13
2023-05-11T17:03:53.527Z,100257.78
2023-05-11T17:07:02.120Z,100260.31
2023-05-11T17:10:17.897Z,100252.44
2023-05-11T17:13:26.991Z,100258.66
2023-05-11T17:16:35.507Z,100253.66
2023-05-11T17:19:44.009Z,100256.50
2023-05-11T17:22:52.475Z,100261.16
2023-05-11T17:26:11.289Z,100263.63
2023-05-11T17:29:19.452Z,100270.91
2023-05-11T17:32:34.602Z,100274.72
2023-05-11T17:35:49.436Z,100280.97
2023-05-11T17:39:04.450Z,100285.63
2023-05-11T17:42:12.997Z,100287.84
2023-05-11T17:45:27.444Z,100284.50
2023-05-11T17:48:32.589Z,100280.72
2023-05-11T17:51:47.447Z,100282.44
2023-05-11T17:55:02.483Z,100298.69
2023-05-11T17:58:17.485Z,100296.66
2023-05-11T18:01:19.398Z,100302.25
2023-05-11T18:04:34.474Z,100304.94
2023-05-11T18:07:42.454Z,100303.03
2023-05-11T18:10:57.708Z,100313.06
2023-05-11T18:14:12.467Z,100317.22
2023-05-11T18:17:14.406Z,100330.03
2023-05-11T18:20:29.427Z,100321.31
2023-05-11T18:23:44.435Z,100341.72
2023-05-11T18:26:53.419Z,100347.66
2023-05-11T18:30:02.663Z,100362.22
2023-05-11T18:33:18.597Z,100353.28
2023-05-11T18:36:27.446Z,100362.22
2023-05-11T18:39:43.446Z,100368.72
2023-05-11T18:42:53.348Z,100377.50
2023-05-11T18:46:13.526Z,100381.94
2023-05-11T18:49:16.433Z,100382.75
2023-05-11T18:52:32.503Z,100382.75
2023-05-11T18:55:41.282Z,100399.13
2023-05-11T18:59:01.551Z,100403.41
2023-05-11T19:02:05.286Z,100400.84
2023-05-11T19:05:22.097Z,100396.41
2023-05-11T19:08:45.487Z,100409.91
2023-05-11T19:12:01.470Z,100409.25
2023-05-11T19:15:04.650Z,100412.84
2023-05-11T19:18:20.499Z,100412.78
2023-05-11T19:21:36.521Z,100411.94
2023-05-11T19:24:39.346Z,100414.00
2023-05-11T19:27:55.520Z,100414.38
2023-05-11T19:31:06.253Z,100423.00
2023-05-11T19:34:22.779Z,100426.75
2023-05-11T19:37:25.505Z,100428.62
2023-05-11T19:40:46.024Z,100440.78
2023-05-11T19:43:56.289Z,100438.53
2023-05-11T19:47:05.460Z,100421.31
2023-05-11T19:50:14.334Z,100440.41
2023-05-11T19:53:29.474Z,100436.72
2023-05-11T19:56:44.450Z,100433.69
2023-05-11T19:59:46.309Z,100428.38
2023-05-11T20:03:01.593Z,100420.81
2023-05-11T20:06:10.466Z,100433.19
2023-05-11T20:09:25.744Z,100435.22
2023-05-11T20:12:34.485Z,100442.75
2023-05-11T20:15:43.216Z,100432.25
2023-05-11T20:18:51.557Z,100440.91
2023-05-11T20:22:06.445Z,100435.81
2023-05-11T20:25:16.976Z,100444.16
2023-05-11T20:28:33.480Z,100385.56
2023-05-11T20:31:48.498Z,100435.16
2023-05-11T20:34:51.331Z,100431.66
2023-05-11T20:38:06.469Z,100439.81
2023-05-11T20:41:14.460Z,100419.13
2023-05-11T20:44:23.026Z,100438.78
2023-05-11T20:47:31.497Z,100429.94
2023-05-11T20:50:40.020Z,100440.22
2023-05-11T20:53:48.466Z,100427.75
2023-05-11T20:57:03.436Z,100428.84
2023-05-11T21:00:12.482Z,100421.56
2023-05-11T21:03:27.515Z,100419.28
2023-05-11T21:06:43.458Z,100424.78
2023-05-11T21:09:58.462Z,100420.13
2023-05-11T21:13:07.000Z,100427.56
2023-05-11T21:16:21.493Z,100424.78
2023-05-11T21:19:29.500Z,100431.56
2023-05-11T21:22:38.020Z,100428.88
2023-05-11T21:25:46.477Z,100409.47
2023-05-11T21:29:01.472Z,100432.69
2023-05-11T21:32:16.544Z,100437.75
2023-05-11T21:35:31.444Z,100432.28
2023-05-11T21:38:33.316Z,100436.69
2023-05-11T21:41:48.498Z,100433.31
2023-05-11T21:44:57.022Z,100432.50
2023-05-11T21:48:05.506Z,100432.88
2023-05-11T21:51:13.971Z,100435.69
2023-05-11T21:54:28.454Z,100428.13
2023-05-11T21:57:43.484Z,100425.75
2023-05-11T22:00:51.480Z,100437.72
2023-05-11T22:04:00.135Z,100436.09
2023-05-11T22:07:08.458Z,100443.59
2023-05-11T22:10:23.992Z,100442.78
2023-05-11T22:13:38.512Z,100441.47
2023-05-11T22:16:47.049Z,100441.47
2023-05-11T22:20:01.476Z,100441.59
2023-05-11T22:23:10.120Z,100451.28
2023-05-11T22:26:18.548Z,100442.31
2023-05-11T22:29:33.499Z,100452.56
2023-05-11T22:32:35.369Z,100454.56
2023-05-11T22:35:50.462Z,100454.78
2023-05-11T22:38:59.094Z,100458.38
2023-05-11T22:42:07.493Z,100445.19
2023-05-11T22:45:16.020Z,100458.25
2023-05-11T22:48:24.458Z,100453.09
2023-05-11T22:51:39.507Z,100463.84
2023-05-11T22:54:52.286Z,100456.09
2023-05-11T22:58:07.478Z,100454.28
2023-05-11T23:01:16.080Z,100462.72
2023-05-11T23:04:30.474Z,100467.63
2023-05-11T23:07:39.022Z,100458.63
2023-05-11T23:10:56.484Z,100462.03
2023-05-11T23:14:05.078Z,100465.22
2023-05-11T23:17:19.519Z,100465.03
2023-05-11T23:20:27.478Z,100466.94
2023-05-11T23:23:36.054Z,100465.62
2023-05-11T23:26:44.478Z,100456.25
2023-05-11T23:29:54.449Z,100457.87
2023-05-11T23:33:09.521Z,100458.63
2023-05-11T23:36:24.515Z,100454.88
2023-05-11T23:39:26.352Z,100454.37
2023-05-11T23:42:41.483Z,100442.09
2023-05-11T23:45:43.333Z,100454.47
2023-05-11T23:48:58.525Z,100443.78
2023-05-11T23:52:13.458Z,100442.72
2023-05-11T23:55:28.474Z,100437.09
2023-05-11T23:58:43.478Z,100441.69
